createdAt,value
2023-05-11T00:07:32.216Z,75507.66
2023-05-11T00:17:34.325Z,75523.84
2023-05-11T00:27:36.657Z,75546.13
2023-05-11T00:37:41.000Z,75570.41
2023-05-11T00:47:43.230Z,75586.59
2023-05-11T00:57:49.497Z,75594.69
2023-05-11T01:08:02.677Z,75606.84
2023-05-11T01:18:19.798Z,75625.03
2023-05-11T01:28:41.430Z,75635.16
2023-05-11T01:38:50.440Z,75657.44
2023-05-11T01:48:53.995Z,75663.50
2023-05-11T01:58:59.905Z,75667.53
2023-05-11T02:09:07.921Z,75671.59
2023-05-11T02:19:12.694Z,75677.66
2023-05-11T02:29:17.647Z,75701.94
2023-05-11T02:39:22.701Z,75722.19
2023-05-11T02:49:25.878Z,75742.41
2023-05-11T02:59:31.408Z,75728.25
2023-05-11T03:09:34.488Z,75693.84
2023-05-11T03:19:39.524Z,75649.31
2023-05-11T03:29:45.589Z,75586.59
2023-05-11T03:39:53.283Z,75519.81
2023-05-11T03:49:57.503Z,75438.88
2023-05-11T04:00:03.013Z,75378.16
2023-05-11T04:10:09.017Z,75347.78
2023-05-11T04:20:14.347Z,75313.41
2023-05-11T04:30:24.668Z,75289.13
2023-05-11T04:40:29.199Z,75248.66
2023-05-11T04:50:31.402Z,75228.41
2023-05-11T05:00:36.914Z,75220.31
2023-05-11T05:10:39.416Z,75145.44
2023-05-11T05:20:41.574Z,75096.88
2023-05-11T05:30:46.228Z,75032.13
2023-05-11T05:40:52.779Z,75058.44
2023-05-11T05:51:02.392Z,74953.22
2023-05-11T06:01:10.374Z,74880.38
2023-05-11T06:11:16.274Z,74815.63
2023-05-11T06:21:20.964Z,74783.25
2023-05-11T06:31:24.720Z,74775.16
2023-05-11T06:41:29.779Z,74714.47
2023-05-11T06:51:37.242Z,74714.47
2023-05-11T07:01:44.107Z,74653.75
2023-05-11T07:11:46.307Z,74655.78
2023-05-11T07:21:49.454Z,74661.84
2023-05-11T07:31:51.901Z,74702.31
2023-05-11T07:41:58.781Z,74641.63
2023-05-11T07:52:00.998Z,74688.16
2023-05-11T08:02:04.862Z,74714.47
2023-05-11T08:12:12.475Z,74698.28
2023-05-11T08:22:19.650Z,74657.81
2023-05-11T08:32:27.537Z,74659.81
2023-05-11T08:42:34.064Z,74623.41
2023-05-11T08:52:38.664Z,74674.00
2023-05-11T09:02:40.944Z,74647.69
2023-05-11T09:12:43.132Z,74659.81
2023-05-11T09:22:48.392Z,74653.75
2023-05-11T09:32:52.824Z,74696.25
2023-05-11T09:42:57.445Z,74633.53
2023-05-11T09:52:59.758Z,74678.03
2023-05-11T10:03:07.890Z,74637.56
2023-05-11T10:13:15.907Z,74617.34
2023-05-11T10:23:21.518Z,74625.44
2023-05-11T10:33:27.166Z,74649.72
2023-05-11T10:43:38.198Z,74576.88
2023-05-11T10:54:02.962Z,74566.75
2023-05-11T11:04:14.004Z,74613.28
2023-05-11T11:14:19.477Z,74574.84
2023-05-11T11:24:43.219Z,74570.81
2023-05-11T11:34:46.895Z,74528.31
2023-05-11T11:44:51.642Z,74552.59
2023-05-11T11:54:59.951Z,74528.31
2023-05-11T12:05:18.948Z,74520.22
2023-05-11T12:15:35.094Z,74532.38
2023-05-11T12:25:37.270Z,74514.16
2023-05-11T12:35:44.020Z,74471.66
2023-05-11T12:45:47.032Z,74459.53
2023-05-11T12:55:59.278Z,74459.53
2023-05-11T13:06:09.227Z,74465.59
2023-05-11T13:16:27.307Z,74443.34
2023-05-11T13:26:30.875Z,74427.16
2023-05-11T13:36:35.454Z,74439.31
2023-05-11T13:46:37.712Z,74396.81
2023-05-11T13:56:40.105Z,74384.69
2023-05-11T14:06:43.697Z,74404.91
2023-05-11T14:16:45.874Z,74398.84
2023-05-11T14:26:50.552Z,74394.78
2023-05-11T14:36:52.736Z,74392.78
2023-05-11T14:46:59.238Z,74394.78
2023-05-11T14:57:04.734Z,74421.09
2023-05-11T15:07:06.855Z,74398.84
2023-05-11T15:17:09.083Z,74415.03
2023-05-11T15:27:11.484Z,74427.16
2023-05-11T15:37:13.709Z,74413.00
2023-05-11T15:47:16.654Z,74402.88
2023-05-11T15:57:18.808Z,74406.94
2023-05-11T16:07:20.969Z,74427.16
2023-05-11T16:17:28.470Z,74423.13
2023-05-11T16:27:32.881Z,74431.22
2023-05-11T16:37:35.004Z,74431.22
2023-05-11T16:47:39.511Z,74445.38
2023-05-11T16:57:44.210Z,74447.38
2023-05-11T17:07:51.901Z,74461.56
2023-05-11T17:17:54.260Z,74479.75
2023-05-11T17:28:00.389Z,74489.88
2023-05-11T17:38:03.689Z,74520.22
2023-05-11T17:48:06.058Z,74538.44
2023-05-11T17:58:10.819Z,74548.56
2023-05-11T18:08:14.446Z,74576.88
2023-05-11T18:18:19.915Z,74609.25
2023-05-11T18:28:30.545Z,74637.56
2023-05-11T18:38:34.889Z,74663.88
2023-05-11T18:48:41.784Z,74690.19
2023-05-11T18:58:49.650Z,74712.44
2023-05-11T19:08:55.790Z,74728.63
2023-05-11T19:18:58.614Z,74763.03
2023-05-11T19:29:00.911Z,74787.28
2023-05-11T19:39:04.558Z,74809.56
2023-05-11T19:49:06.695Z,74831.81
2023-05-11T19:59:08.952Z,74856.09
2023-05-11T20:09:14.704Z,74884.41
2023-05-11T20:19:19.248Z,74920.84
2023-05-11T20:29:23.580Z,74928.94
2023-05-11T20:39:30.896Z,74973.44
2023-05-11T20:49:39.308Z,75001.78
2023-05-11T21:09:46.797Z,75072.59
2023-05-11T21:19:51.311Z,75104.97
2023-05-11T21:29:56.841Z,75141.41
2023-05-11T21:40:02.664Z,75064.50
2023-05-11T21:50:08.900Z,75155.56
2023-05-11T22:00:18.800Z,75196.03
2023-05-11T22:10:24.851Z,75222.34
2023-05-11T22:20:31.916Z,75250.66
2023-05-11T22:30:37.807Z,75281.03
2023-05-11T22:40:42.326Z,75293.16
2023-05-11T22:50:47.925Z,75305.31
2023-05-11T23:00:54.841Z,75321.50
2023-05-11T23:11:00.037Z,75333.63
2023-05-11T23:21:07.364Z,75349.81
2023-05-11T23:31:09.563Z,75359.94
2023-05-11T23:41:11.806Z,75378.16
2023-05-11T23:51:18.205Z,75378.16
